Time;durP1;ratioP1;P1;durP2;ratioP2;P2;SDS_P1;SDS_P2;PMS_P1;PMS_P2;Temp;Humidity;BMP_temperature;BMP_pressure;BME280_temperature;BME280_humidity;BME280_pressure;Samples;Min_cycle;Max_cycle;Signal;HPM_P1;HPM_P2
2023/04/11 00:01:52;;;;;;;3.08;1.38;;;21.80;39.10;;;;;;5040333;28;20131;-51
2023/04/11 00:04:19;;;;;;;2.60;1.23;;;21.70;39.00;;;;;;5041244;28;20025;-53
2023/04/11 00:06:46;;;;;;;2.40;1.08;;;21.70;39.00;;;;;;5041971;28;20457;-53
2023/04/11 00:09:12;;;;;;;3.50;1.30;;;21.70;39.00;;;;;;5046760;28;20071;-51
2023/04/11 00:11:38;;;;;;;2.58;1.08;;;21.70;39.00;;;;;;5037435;28;20067;-53
2023/04/11 00:14:04;;;;;;;2.55;1.20;;;21.70;39.00;;;;;;5038683;28;20064;-49
2023/04/11 00:16:32;;;;;;;3.67;1.30;;;21.70;39.00;;;;;;5036267;28;20045;-47
2023/04/11 00:18:59;;;;;;;3.28;1.20;;;21.70;39.10;;;;;;5042247;28;20345;-48
2023/04/11 00:21:25;;;;;;;2.88;1.27;;;21.70;39.20;;;;;;5040103;28;20082;-50
2023/04/11 00:23:54;;;;;;;3.33;1.27;;;21.70;39.30;;;;;;5037525;28;20033;-52
2023/04/11 00:26:20;;;;;;;3.15;1.40;;;21.70;39.40;;;;;;5041390;28;20145;-49
2023/04/11 00:28:47;;;;;;;3.38;1.60;;;21.70;39.50;;;;;;5043724;28;20048;-48
2023/04/11 00:31:13;;;;;;;6.13;1.88;;;21.60;39.50;;;;;;5039407;28;20041;-50
2023/04/11 00:33:38;;;;;;;4.13;1.60;;;21.60;39.60;;;;;;5039678;28;20021;-48
2023/04/11 00:36:05;;;;;;;3.97;1.58;;;21.70;39.70;;;;;;5036779;28;20432;-48
2023/04/11 00:38:31;;;;;;;4.30;1.77;;;21.60;39.70;;;;;;5041551;28;20037;-48
2023/04/11 00:40:57;;;;;;;4.63;1.75;;;21.60;39.70;;;;;;5038910;28;20485;-49
2023/04/11 00:43:23;;;;;;;4.13;1.77;;;21.60;39.80;;;;;;5041840;28;20035;-47
2023/04/11 00:45:50;;;;;;;5.20;2.05;;;21.60;39.80;;;;;;5038894;28;20046;-51
2023/04/11 00:48:16;;;;;;;4.68;2.15;;;21.60;39.90;;;;;;5042942;28;20032;-50
2023/04/11 00:50:42;;;;;;;5.22;2.10;;;21.60;39.90;;;;;;5043745;28;20537;-47
2023/04/11 00:53:10;;;;;;;3.13;1.65;;;21.60;39.90;;;;;;5045998;28;20033;-51
2023/04/11 00:55:36;;;;;;;5.75;1.98;;;21.60;39.90;;;;;;5041755;28;20031;-51
2023/04/11 00:58:02;;;;;;;5.72;1.92;;;21.60;39.90;;;;;;5038138;28;20108;-48
2023/04/11 01:00:32;;;;;;;4.05;1.63;;;21.60;40.00;;;;;;5041092;28;20456;-50
2023/04/11 01:02:59;;;;;;;3.97;1.40;;;21.60;40.00;;;;;;5036746;28;20044;-47
2023/04/11 01:05:26;;;;;;;4.85;2.17;;;21.60;40.00;;;;;;5035773;28;20060;-56
2023/04/11 01:07:54;;;;;;;5.55;2.00;;;21.50;40.00;;;;;;5039395;28;20043;-52
2023/04/11 01:10:22;;;;;;;7.65;2.30;;;21.50;40.10;;;;;;5037938;28;20025;-49
2023/04/11 01:12:48;;;;;;;7.85;2.15;;;21.50;40.20;;;;;;5037778;28;20059;-50
2023/04/11 01:15:14;;;;;;;5.68;2.10;;;21.50;40.20;;;;;;5046092;28;20358;-47
2023/04/11 01:17:40;;;;;;;4.78;1.65;;;21.50;40.20;;;;;;5038477;28;20033;-48
2023/04/11 01:20:08;;;;;;;5.05;1.75;;;21.50;40.20;;;;;;5039428;28;20021;-47
2023/04/11 01:22:36;;;;;;;4.90;1.90;;;21.50;40.20;;;;;;5037369;28;20037;-48
2023/04/11 01:25:03;;;;;;;7.82;2.17;;;21.50;40.20;;;;;;5042395;28;20506;-50
2023/04/11 01:27:32;;;;;;;5.95;2.10;;;21.50;40.20;;;;;;5040745;28;20028;-50
2023/04/11 01:29:59;;;;;;;5.68;1.98;;;21.50;40.20;;;;;;5036091;28;20033;-51
2023/04/11 01:32:25;;;;;;;8.65;2.38;;;21.50;40.20;;;;;;5041122;28;20037;-51
2023/04/11 01:34:52;;;;;;;5.82;2.13;;;21.50;40.20;;;;;;5040557;28;20115;-48
2023/04/11 01:37:19;;;;;;;5.85;2.00;;;21.50;40.20;;;;;;5037167;28;20029;-50
2023/04/11 01:39:44;;;;;;;6.25;2.40;;;21.40;40.10;;;;;;5042494;28;20029;-49
2023/04/11 01:42:11;;;;;;;6.10;2.17;;;21.40;40.10;;;;;;5042493;28;20482;-48
2023/04/11 01:44:37;;;;;;;6.47;2.70;;;21.50;40.80;;;;;;5037887;28;20449;-51
2023/04/11 01:47:03;;;;;;;9.00;2.50;;;21.50;40.20;;;;;;5039037;28;20067;-52
2023/04/11 01:49:30;;;;;;;5.70;2.45;;;21.40;40.10;;;;;;5034576;28;20142;-46
2023/04/11 01:51:55;;;;;;;6.45;2.25;;;21.40;40.10;;;;;;5037608;28;20486;-51
2023/04/11 01:54:21;;;;;;;6.63;2.22;;;21.40;40.10;;;;;;5038254;28;20061;-48
2023/04/11 01:56:47;;;;;;;6.82;2.40;;;21.40;40.10;;;;;;5032693;28;20122;-52
2023/04/11 01:59:13;;;;;;;6.10;2.25;;;21.40;40.10;;;;;;5032962;28;20468;-52
2023/04/11 02:01:42;;;;;;;8.48;2.38;;;21.40;40.10;;;;;;5040297;28;20026;-47
2023/04/11 02:04:08;;;;;;;6.55;2.13;;;21.40;40.10;;;;;;5059720;28;20041;-47
2023/04/11 02:06:33;;;;;;;6.50;2.17;;;21.40;40.10;;;;;;5040832;28;20024;-56
2023/04/11 02:08:59;;;;;;;5.82;1.98;;;21.40;40.00;;;;;;5039621;28;20021;-54
2023/04/11 02:11:25;;;;;;;7.82;2.38;;;21.40;40.00;;;;;;5039553;28;20056;-53
2023/04/11 02:13:51;;;;;;;5.82;1.92;;;21.40;40.00;;;;;;5040338;28;20040;-54
2023/04/11 02:16:17;;;;;;;6.90;2.47;;;21.40;40.00;;;;;;5039822;28;20039;-52
2023/04/11 02:18:44;;;;;;;6.35;2.42;;;21.40;40.00;;;;;;5045047;28;20022;-54
2023/04/11 02:21:10;;;;;;;5.38;2.05;;;21.40;39.90;;;;;;5034978;28;20033;-50
2023/04/11 02:23:36;;;;;;;6.78;2.35;;;21.40;39.90;;;;;;5040909;28;20025;-49
2023/04/11 02:26:03;;;;;;;6.13;2.08;;;21.40;39.90;;;;;;5034092;28;20048;-51
2023/04/11 02:28:29;;;;;;;8.15;2.08;;;21.40;39.90;;;;;;5042052;28;20108;-48
2023/04/11 02:30:55;;;;;;;7.75;2.10;;;21.40;39.90;;;;;;5035331;28;20175;-47
2023/04/11 02:33:21;;;;;;;7.03;2.20;;;21.40;39.80;;;;;;5045042;28;20025;-48
2023/04/11 02:35:47;;;;;;;7.88;2.60;;;21.40;39.80;;;;;;5036348;28;20040;-50
2023/04/11 02:38:13;;;;;;;7.25;2.75;;;21.40;39.70;;;;;;5041955;28;20034;-51
2023/04/11 02:40:39;;;;;;;7.93;2.83;;;21.40;39.70;;;;;;5039963;28;20032;-49
2023/04/11 02:43:06;;;;;;;6.72;2.17;;;21.40;39.70;;;;;;5020388;28;20018;-49
2023/04/11 02:45:32;;;;;;;5.38;2.00;;;21.40;39.70;;;;;;5034994;28;20041;-47
2023/04/11 02:47:59;;;;;;;5.78;2.25;;;21.40;39.70;;;;;;5038150;28;20353;-51
2023/04/11 02:50:25;;;;;;;7.63;2.40;;;21.40;39.60;;;;;;5042367;28;20055;-50
2023/04/11 02:52:52;;;;;;;5.78;1.90;;;21.40;39.50;;;;;;5038117;28;20147;-49
2023/04/11 02:55:23;;;;;;;7.65;2.40;;;21.40;39.50;;;;;;5040409;28;20344;-52
2023/04/11 02:57:49;;;;;;;7.15;1.90;;;21.40;39.30;;;;;;5033352;28;20029;-49
2023/04/11 03:00:20;;;;;;;5.30;1.48;;;21.40;39.20;;;;;;5042652;28;20057;-51
2023/04/11 03:02:57;;;;;;;4.43;1.60;;;21.40;39.10;;;;;;5039625;28;20168;-47
2023/04/11 03:05:24;;;;;;;4.75;1.63;;;21.40;39.00;;;;;;5043960;28;20025;-48
2023/04/11 03:07:52;;;;;;;8.05;1.98;;;21.40;38.90;;;;;;5045775;28;20063;-52
2023/04/11 03:10:20;;;;;;;3.97;1.35;;;21.40;38.80;;;;;;5047073;28;20044;-52
2023/04/11 03:12:45;;;;;;;6.55;1.70;;;21.40;38.80;;;;;;5039344;28;20037;-47
2023/04/11 03:15:14;;;;;;;4.63;1.70;;;21.40;38.70;;;;;;5041836;28;20033;-49
2023/04/11 03:17:40;;;;;;;4.50;1.50;;;21.40;38.70;;;;;;5050148;28;20148;-51
2023/04/11 03:20:10;;;;;;;6.55;2.20;;;21.40;38.70;;;;;;5040564;28;20017;-46
2023/04/11 03:22:37;;;;;;;4.28;1.70;;;21.40;38.70;;;;;;5044731;28;20022;-48
2023/04/11 03:25:05;;;;;;;6.70;1.70;;;21.40;38.70;;;;;;5046360;28;20064;-47
2023/04/11 03:27:31;;;;;;;5.10;1.63;;;21.40;38.70;;;;;;5039050;28;20056;-49
2023/04/11 03:30:01;;;;;;;5.85;1.75;;;21.40;38.70;;;;;;5042874;28;20036;-49
2023/04/11 03:32:37;;;;;;;4.57;1.40;;;21.40;38.70;;;;;;5038703;28;20052;-48
2023/04/11 03:35:03;;;;;;;4.88;1.83;;;21.40;38.80;;;;;;5045879;28;20025;-51
2023/04/11 03:37:29;;;;;;;5.43;1.60;;;21.40;38.80;;;;;;5039981;28;20063;-48
2023/04/11 03:39:55;;;;;;;4.75;1.70;;;21.40;38.90;;;;;;5040896;28;20053;-50
2023/04/11 03:42:21;;;;;;;7.07;2.22;;;21.40;38.90;;;;;;5036067;28;20029;-49
2023/04/11 03:44:51;;;;;;;4.28;1.80;;;21.40;38.90;;;;;;5038332;28;20512;-50
2023/04/11 03:47:17;;;;;;;8.75;1.77;;;21.40;38.90;;;;;;5041058;28;20120;-50
2023/04/11 03:49:43;;;;;;;5.18;1.65;;;21.40;39.00;;;;;;5040642;28;20025;-48
2023/04/11 03:52:13;;;;;;;6.10;2.15;;;21.40;39.00;;;;;;5041148;28;20037;-48
2023/04/11 03:54:40;;;;;;;5.15;1.63;;;21.40;39.00;;;;;;5036691;28;20378;-52
2023/04/11 03:57:08;;;;;;;5.13;1.83;;;21.30;39.00;;;;;;5037202;28;20029;-50
2023/04/11 03:59:34;;;;;;;7.25;2.20;;;21.40;39.00;;;;;;5071207;28;20033;-50
2023/04/11 04:02:05;;;;;;;6.35;2.08;;;21.40;38.90;;;;;;5037504;28;20445;-53
2023/04/11 04:04:33;;;;;;;4.97;1.40;;;21.40;38.90;;;;;;5041520;28;20025;-49
2023/04/11 04:07:21;;;;;;;5.47;1.98;;;21.30;38.90;;;;;;5044799;28;20040;-50
2023/04/11 04:09:50;;;;;;;4.32;1.75;;;21.40;38.90;;;;;;5044195;28;20025;-54
2023/04/11 04:12:19;;;;;;;6.22;2.03;;;21.40;38.90;;;;;;5046244;28;20066;-52
2023/04/11 04:15:05;;;;;;;4.90;1.67;;;21.30;38.80;;;;;;5041872;28;20041;-54
2023/04/11 04:17:31;;;;;;;4.68;1.50;;;21.30;38.80;;;;;;5042587;28;20026;-50
2023/04/11 04:19:59;;;;;;;5.82;1.60;;;21.30;38.70;;;;;;5040945;28;20432;-49
2023/04/11 04:22:25;;;;;;;4.50;1.23;;;21.30;38.60;;;;;;5042891;28;20033;-47
2023/04/11 04:24:56;;;;;;;5.88;1.70;;;21.30;38.60;;;;;;5039924;28;20034;-50
2023/04/11 04:27:26;;;;;;;5.10;1.80;;;21.30;38.60;;;;;;5036230;28;20029;-49
2023/04/11 04:29:55;;;;;;;4.03;1.30;;;21.30;39.10;;;;;;5041502;28;20411;-52
2023/04/11 04:32:23;;;;;;;5.05;1.38;;;21.30;38.40;;;;;;5042101;28;20033;-49
2023/04/11 04:34:56;;;;;;;4.40;1.48;;;21.30;38.40;;;;;;5034265;28;20077;-49
2023/04/11 04:37:27;;;;;;;3.83;1.45;;;21.30;38.30;;;;;;5040116;28;20022;-47
2023/04/11 04:40:12;;;;;;;3.90;1.30;;;21.30;38.20;;;;;;5038986;28;20047;-50
2023/04/11 04:42:57;;;;;;;3.47;1.23;;;21.30;38.20;;;;;;5035435;28;20017;-53
2023/04/11 04:45:28;;;;;;;3.35;1.30;;;21.30;38.20;;;;;;5045015;28;20385;-48
2023/04/11 04:47:55;;;;;;;3.65;1.00;;;21.30;38.10;;;;;;5043590;28;20025;-52
2023/04/11 04:50:22;;;;;;;3.22;1.15;;;21.30;38.10;;;;;;5044384;28;20033;-50
2023/04/11 04:52:48;;;;;;;4.28;1.48;;;21.30;38.10;;;;;;5042610;28;20481;-52
2023/04/11 04:55:14;;;;;;;3.85;1.10;;;21.30;38.10;;;;;;5035687;28;20041;-50
2023/04/11 04:57:41;;;;;;;3.42;1.27;;;21.30;38.10;;;;;;5052738;28;20025;-48
2023/04/11 05:00:10;;;;;;;3.00;0.90;;;21.30;38.00;;;;;;5037144;28;20052;-51
2023/04/11 05:02:37;;;;;;;5.55;1.52;;;21.20;37.90;;;;;;5035581;28;20017;-48
2023/04/11 05:05:03;;;;;;;5.35;1.25;;;21.30;38.00;;;;;;5036487;28;20174;-49
2023/04/11 05:07:29;;;;;;;3.55;1.15;;;21.30;38.00;;;;;;5043939;28;20029;-46
2023/04/11 05:09:55;;;;;;;3.25;1.10;;;21.20;37.90;;;;;;5038366;28;20463;-49
2023/04/11 05:12:26;;;;;;;3.22;1.00;;;21.30;37.90;;;;;;5036150;28;20369;-48
2023/04/11 05:14:55;;;;;;;2.30;1.02;;;21.20;37.90;;;;;;5035906;28;20499;-46
2023/04/11 05:17:23;;;;;;;3.55;1.25;;;21.30;37.90;;;;;;5041492;28;20021;-49
2023/04/11 05:19:50;;;;;;;3.28;0.98;;;21.20;37.80;;;;;;5053991;28;20190;-53
2023/04/11 05:22:17;;;;;;;3.25;0.90;;;21.20;37.80;;;;;;5039276;28;20060;-47
2023/04/11 05:24:47;;;;;;;2.53;1.00;;;21.20;37.70;;;;;;5040942;28;20052;-52
2023/04/11 05:27:13;;;;;;;3.95;1.60;;;21.20;37.70;;;;;;5042486;28;20067;-51
2023/04/11 05:29:40;;;;;;;3.03;1.00;;;21.20;37.60;;;;;;5038188;28;20494;-49
2023/04/11 05:32:06;;;;;;;2.63;1.10;;;21.20;37.60;;;;;;5039544;28;20044;-50
2023/04/11 05:34:33;;;;;;;3.47;1.20;;;21.20;37.50;;;;;;5040459;28;20068;-47
2023/04/11 05:37:00;;;;;;;3.25;1.08;;;21.20;37.50;;;;;;5039173;28;20445;-51
2023/04/11 05:39:26;;;;;;;1.35;0.70;;;21.20;37.40;;;;;;5041568;28;20025;-50
2023/04/11 05:41:52;;;;;;;2.03;0.82;;;21.20;37.30;;;;;;5044579;28;20029;-55
2023/04/11 05:44:18;;;;;;;3.45;1.08;;;21.20;37.20;;;;;;5037563;28;20457;-50
2023/04/11 05:46:43;;;;;;;2.55;1.13;;;21.30;37.20;;;;;;5044017;28;20036;-49
2023/04/11 05:49:10;;;;;;;2.97;1.10;;;21.20;37.10;;;;;;5038082;28;20437;-52
2023/04/11 05:51:36;;;;;;;2.58;0.75;;;21.20;37.10;;;;;;5035790;28;20095;-50
2023/04/11 05:54:02;;;;;;;2.00;0.88;;;21.20;37.00;;;;;;5038486;28;20017;-51
2023/04/11 05:56:28;;;;;;;2.60;0.93;;;21.30;37.00;;;;;;5039367;28;20025;-48
2023/04/11 05:58:54;;;;;;;3.40;1.15;;;21.20;37.00;;;;;;5040844;28;20021;-48
2023/04/11 06:01:21;;;;;;;2.53;0.95;;;21.20;36.80;;;;;;5036179;28;20029;-52
2023/04/11 06:03:47;;;;;;;3.35;1.10;;;21.20;36.80;;;;;;5039932;28;20143;-50
2023/04/11 06:06:13;;;;;;;2.38;0.80;;;21.30;37.00;;;;;;5038675;28;20168;-51
2023/04/11 06:08:39;;;;;;;1.65;0.80;;;21.30;37.10;;;;;;5038915;28;20074;-50
2023/04/11 06:11:05;;;;;;;1.98;0.63;;;21.30;37.90;;;;;;5040598;28;20025;-52
2023/04/11 06:13:31;;;;;;;1.95;0.68;;;21.30;37.30;;;;;;5042285;28;20033;-53
2023/04/11 06:15:57;;;;;;;2.75;0.75;;;21.40;37.40;;;;;;5036352;28;20028;-55
2023/04/11 06:18:23;;;;;;;2.35;1.08;;;21.40;37.50;;;;;;5041084;28;20074;-50
2023/04/11 06:20:49;;;;;;;2.92;1.05;;;21.40;37.50;;;;;;5038804;28;20104;-49
2023/04/11 06:23:15;;;;;;;2.95;0.90;;;21.40;37.50;;;;;;5036853;28;20017;-52
2023/04/11 06:25:41;;;;;;;2.65;0.60;;;21.40;37.50;;;;;;5034509;28;20072;-50
2023/04/11 06:28:07;;;;;;;1.98;0.70;;;21.40;37.50;;;;;;5045224;28;20441;-50
2023/04/11 06:30:33;;;;;;;2.78;0.93;;;21.50;37.50;;;;;;5053234;28;20151;-48
2023/04/11 06:32:59;;;;;;;2.05;0.80;;;21.50;37.40;;;;;;5053610;28;20056;-49
2023/04/11 06:35:27;;;;;;;2.13;0.80;;;21.50;37.40;;;;;;5056949;28;20037;-48
2023/04/11 06:37:54;;;;;;;3.58;1.13;;;21.60;37.40;;;;;;5060607;28;20434;-48
2023/04/11 06:40:20;;;;;;;2.20;0.80;;;21.60;37.30;;;;;;5057482;28;20020;-51
2023/04/11 06:42:47;;;;;;;3.00;1.10;;;21.60;37.30;;;;;;5057908;28;20116;-47
2023/04/11 06:45:14;;;;;;;4.53;1.38;;;21.70;37.20;;;;;;5058893;28;20176;-51
2023/04/11 06:47:40;;;;;;;3.85;0.95;;;21.70;37.10;;;;;;5056391;28;20035;-48
2023/04/11 06:50:07;;;;;;;3.67;0.90;;;21.70;37.10;;;;;;5055847;28;20036;-52
2023/04/11 06:52:33;;;;;;;2.60;0.82;;;21.70;37.00;;;;;;5089986;28;20136;-50
2023/04/11 06:54:59;;;;;;;2.55;0.98;;;21.80;36.90;;;;;;5076718;28;20412;-52
2023/04/11 06:57:25;;;;;;;3.22;0.98;;;21.80;36.80;;;;;;5044031;28;20081;-50
2023/04/11 06:59:51;;;;;;;2.05;0.52;;;21.80;36.70;;;;;;5056612;28;20356;-51
2023/04/11 07:02:17;;;;;;;2.70;1.08;;;21.80;36.60;;;;;;5057367;28;20357;-48
2023/04/11 07:04:43;;;;;;;3.33;1.10;;;21.80;36.50;;;;;;5056500;28;20037;-53
2023/04/11 07:07:09;;;;;;;3.10;1.02;;;21.80;36.40;;;;;;5052101;28;20032;-52
2023/04/11 07:09:36;;;;;;;2.53;0.85;;;21.90;36.50;;;;;;5056507;28;20108;-51
2023/04/11 07:12:02;;;;;;;1.70;0.80;;;21.90;36.40;;;;;;5055305;28;20371;-48
2023/04/11 07:14:28;;;;;;;2.25;0.82;;;21.90;36.40;;;;;;5055602;28;20071;-50
2023/04/11 07:16:54;;;;;;;3.13;1.17;;;21.90;36.40;;;;;;5051997;28;20041;-50
2023/04/11 07:19:19;;;;;;;2.78;1.08;;;21.90;36.40;;;;;;5054086;28;20033;-52
2023/04/11 07:21:45;;;;;;;3.25;0.93;;;21.90;36.40;;;;;;5054053;28;20435;-49
2023/04/11 07:24:12;;;;;;;3.72;0.73;;;22.00;36.40;;;;;;5056033;28;20453;-56
2023/04/11 07:26:41;;;;;;;3.45;1.10;;;21.90;36.50;;;;;;5055794;28;20093;-56
2023/04/11 07:29:07;;;;;;;2.25;0.88;;;22.00;36.60;;;;;;5050844;28;20364;-53
2023/04/11 07:31:33;;;;;;;4.30;0.98;;;21.90;36.70;;;;;;5051862;28;20414;-49
2023/04/11 07:33:59;;;;;;;2.53;1.10;;;22.00;36.60;;;;;;5046772;28;20104;-51
2023/04/11 07:36:25;;;;;;;2.05;1.00;;;22.00;36.50;;;;;;5050007;28;20065;-51
2023/04/11 07:38:51;;;;;;;4.10;1.15;;;22.00;36.50;;;;;;5055554;28;20139;-50
2023/04/11 07:41:17;;;;;;;2.63;0.98;;;22.00;36.40;;;;;;5054828;28;20638;-47
2023/04/11 07:43:43;;;;;;;2.28;0.82;;;22.00;36.30;;;;;;5055415;28;20032;-48
2023/04/11 07:46:08;;;;;;;2.25;0.85;;;22.00;36.30;;;;;;5054429;28;20024;-52
2023/04/11 07:48:34;;;;;;;2.47;0.80;;;22.00;36.20;;;;;;5056095;28;20025;-52
2023/04/11 07:51:00;;;;;;;3.15;1.00;;;21.90;36.10;;;;;;5054507;28;20486;-47
2023/04/11 07:53:26;;;;;;;2.42;1.02;;;22.00;36.10;;;;;;5055777;28;20118;-49
2023/04/11 07:55:52;;;;;;;3.05;1.30;;;22.00;36.00;;;;;;5057588;28;20222;-51
2023/04/11 07:58:18;;;;;;;2.35;1.00;;;22.00;35.90;;;;;;5043540;28;20152;-47
2023/04/11 08:00:44;;;;;;;2.72;0.95;;;22.00;35.90;;;;;;5042636;28;20041;-51
2023/04/11 08:03:11;;;;;;;2.95;1.15;;;22.00;35.80;;;;;;5047440;28;20029;-49
2023/04/11 08:05:38;;;;;;;3.78;1.20;;;22.00;35.70;;;;;;5067993;28;20051;-48
2023/04/11 08:08:04;;;;;;;4.10;0.77;;;22.00;35.70;;;;;;5072751;28;20025;-48
2023/04/11 08:10:30;;;;;;;3.05;1.15;;;21.90;35.60;;;;;;5077288;28;20103;-53
2023/04/11 08:12:57;;;;;;;2.45;0.85;;;22.00;35.60;;;;;;5076748;28;20119;-50
2023/04/11 08:15:23;;;;;;;3.17;1.10;;;22.00;35.50;;;;;;5074019;28;20043;-48
2023/04/11 08:17:50;;;;;;;3.58;1.10;;;22.00;35.40;;;;;;5066469;28;20335;-54
2023/04/11 08:20:17;;;;;;;3.85;0.98;;;21.90;35.90;;;;;;5037279;28;20025;-53
2023/04/11 08:22:45;;;;;;;2.60;0.88;;;21.90;35.20;;;;;;5074109;28;20055;-54
2023/04/11 08:25:13;;;;;;;3.55;1.15;;;22.00;35.30;;;;;;5051855;28;20398;-52
2023/04/11 08:27:40;;;;;;;3.25;1.02;;;22.00;35.30;;;;;;5051506;28;20099;-53
2023/04/11 08:30:07;;;;;;;2.97;1.00;;;22.00;35.30;;;;;;5050894;28;20086;-54
2023/04/11 08:32:34;;;;;;;5.25;1.15;;;22.10;35.30;;;;;;5061042;28;20516;-55
2023/04/11 08:35:00;;;;;;;2.53;1.20;;;22.10;35.20;;;;;;5076711;28;20036;-52
2023/04/11 08:37:29;;;;;;;3.22;0.60;;;22.20;35.00;;;;;;5073645;28;20147;-52
2023/04/11 08:39:58;;;;;;;1.35;0.65;;;22.20;34.80;;;;;;5076661;28;20029;-54
2023/04/11 08:42:29;;;;;;;2.42;0.90;;;22.30;34.80;;;;;;5070501;28;20043;-46
2023/04/11 08:45:01;;;;;;;1.30;0.80;;;22.40;34.80;;;;;;5066932;28;20064;-47
2023/04/11 08:47:27;;;;;;;2.72;0.90;;;22.50;34.70;;;;;;5073861;28;20063;-46
2023/04/11 08:49:53;;;;;;;2.63;1.02;;;22.60;34.60;;;;;;5053942;28;20025;-48
2023/04/11 08:52:20;;;;;;;3.08;0.93;;;22.60;34.40;;;;;;5054405;28;20036;-49
2023/04/11 08:54:47;;;;;;;3.15;0.80;;;22.70;34.30;;;;;;5053917;28;20090;-46
2023/04/11 08:57:27;;;;;;;2.03;0.70;;;22.70;34.10;;;;;;5053297;28;20059;-47
2023/04/11 08:59:59;;;;;;;3.58;0.90;;;22.70;34.00;;;;;;5055669;28;20029;-47
2023/04/11 09:02:26;;;;;;;3.63;1.25;;;22.70;33.80;;;;;;5052407;28;20104;-44
2023/04/11 09:04:52;;;;;;;2.30;1.00;;;22.70;33.70;;;;;;5054049;28;20117;-46
2023/04/11 09:07:18;;;;;;;2.60;0.80;;;22.70;33.50;;;;;;5055084;28;20029;-47
2023/04/11 09:09:44;;;;;;;1.67;0.70;;;22.70;33.30;;;;;;5046851;28;20403;-51
2023/04/11 09:12:11;;;;;;;2.30;1.08;;;22.70;33.20;;;;;;5046872;28;20037;-51
2023/04/11 09:14:36;;;;;;;3.20;0.80;;;22.70;33.20;;;;;;5041528;28;20163;-47
2023/04/11 09:17:12;;;;;;;3.35;1.00;;;22.70;33.30;;;;;;5042534;28;20120;-48
2023/04/11 09:19:39;;;;;;;2.33;1.00;;;22.60;33.30;;;;;;5046421;28;20410;-50
2023/04/11 09:22:06;;;;;;;4.57;1.20;;;22.60;33.30;;;;;;5038269;28;20686;-50
2023/04/11 09:24:33;;;;;;;9.52;2.33;;;22.60;33.50;;;;;;5044066;28;20045;-48
2023/04/11 09:27:15;;;;;;;12.52;4.07;;;22.60;33.80;;;;;;5043379;28;20033;-47
2023/04/11 09:29:46;;;;;;;11.45;5.45;;;22.60;34.70;;;;;;5042915;28;20119;-52
2023/04/11 09:32:39;;;;;;;21.27;8.02;;;22.60;36.30;;;;;;5041172;28;20441;-46
2023/04/11 09:35:17;;;;;;;22.13;7.88;;;22.50;37.50;;;;;;5040820;28;20404;-48
2023/04/11 09:37:51;;;;;;;25.55;9.55;;;22.50;38.70;;;;;;5039447;28;20067;-50
2023/04/11 09:40:20;;;;;;;24.95;9.02;;;22.60;40.40;;;;;;5046953;28;20079;-53
2023/04/11 09:42:47;;;;;;;18.92;7.60;;;22.60;41.30;;;;;;5042480;28;20033;-49
2023/04/11 09:45:21;;;;;;;16.17;6.80;;;22.60;40.90;;;;;;5047038;28;20051;-46
2023/04/11 09:47:48;;;;;;;14.20;5.32;;;22.60;40.10;;;;;;5050697;28;20474;-46
2023/04/11 09:50:15;;;;;;;20.35;4.65;;;22.60;39.40;;;;;;5051813;28;20025;-47
2023/04/11 09:52:42;;;;;;;8.00;3.60;;;22.50;38.70;;;;;;5052256;28;20045;-49
2023/04/11 09:55:13;;;;;;;9.63;3.03;;;22.50;38.10;;;;;;5052364;28;20408;-50
2023/04/11 09:57:47;;;;;;;7.22;2.90;;;22.50;37.60;;;;;;5053025;28;20344;-50
2023/04/11 10:00:23;;;;;;;;;;;22.50;37.10;;;;;;5051538;28;20032;-49
2023/04/11 10:02:52;;;;;;;5.28;2.25;;;22.40;36.80;;;;;;5052341;28;19960;-47
2023/04/11 10:05:19;;;;;;;5.43;1.88;;;22.40;36.60;;;;;;5036263;28;20029;-47
2023/04/11 10:08:21;;;;;;;3.72;1.70;;;22.40;36.20;;;;;;5039967;28;20025;-51
2023/04/11 10:10:47;;;;;;;5.38;2.13;;;22.40;36.10;;;;;;5027578;28;20476;-49
2023/04/11 10:13:44;;;;;;;4.90;1.90;;;22.40;35.80;;;;;;5034788;28;20072;-49
2023/04/11 10:16:15;;;;;;;5.32;1.80;;;22.40;35.70;;;;;;5036326;28;20083;-51
2023/04/11 10:18:53;;;;;;;3.88;1.15;;;22.40;35.60;;;;;;5041804;28;20060;-51
2023/04/11 10:21:35;;;;;;;4.07;1.20;;;22.40;35.50;;;;;;5044408;28;20033;-51
2023/04/11 10:24:10;;;;;;;3.67;0.93;;;22.40;35.40;;;;;;5037054;28;20475;-51
2023/04/11 10:26:49;;;;;;;5.95;1.30;;;22.30;35.30;;;;;;5034525;28;20033;-54
2023/04/11 10:29:44;;;;;;;3.67;1.30;;;22.30;35.20;;;;;;5038328;28;20033;-51
2023/04/11 10:32:18;;;;;;;2.30;1.00;;;22.30;35.10;;;;;;5040068;28;20087;-47
2023/04/11 10:34:49;;;;;;;3.88;0.90;;;22.30;35.00;;;;;;5036796;28;20894;-49
2023/04/11 10:37:35;;;;;;;3.67;1.30;;;22.30;34.90;;;;;;5041183;28;20025;-45
2023/04/11 10:40:08;;;;;;;2.65;1.00;;;22.30;34.70;;;;;;5033519;28;20021;-46
2023/04/11 10:42:42;;;;;;;9.07;1.17;;;22.30;34.50;;;;;;5038924;28;20049;-51
2023/04/11 10:45:26;;;;;;;3.13;0.90;;;22.30;34.60;;;;;;5037374;28;20477;-46
2023/04/11 10:47:55;;;;;;;2.95;0.90;;;22.30;34.60;;;;;;5042915;28;20456;-53
2023/04/11 10:50:27;;;;;;;2.90;0.90;;;22.30;34.60;;;;;;5035379;28;20029;-54
2023/04/11 10:53:04;;;;;;;4.82;1.50;;;22.30;34.50;;;;;;5043591;28;20040;-55
2023/04/11 10:55:48;;;;;;;4.93;1.15;;;22.30;34.50;;;;;;5047294;28;20065;-52
2023/04/11 10:58:16;;;;;;;3.05;1.15;;;22.30;34.40;;;;;;5038061;28;20044;-50
2023/04/11 11:00:48;;;;;;;2.95;0.73;;;22.40;34.20;;;;;;5039864;28;20146;-54
2023/04/11 11:03:15;;;;;;;3.50;1.00;;;22.50;34.00;;;;;;5044197;28;20441;-55
2023/04/11 11:05:41;;;;;;;2.28;1.00;;;22.60;33.80;;;;;;5041869;28;20407;-56
2023/04/11 11:08:07;;;;;;;2.65;0.90;;;22.70;33.50;;;;;;5039329;28;20029;-50
2023/04/11 11:10:45;;;;;;;2.00;0.70;;;22.80;33.30;;;;;;5039552;28;20033;-51
2023/04/11 11:13:15;;;;;;;2.28;0.88;;;22.90;33.30;;;;;;5038349;28;20103;-50
2023/04/11 11:15:47;;;;;;;4.47;0.98;;;23.00;33.30;;;;;;5036902;28;20061;-50
2023/04/11 11:18:14;;;;;;;2.35;0.65;;;23.00;33.20;;;;;;5040480;28;20083;-50
2023/04/11 11:20:41;;;;;;;2.95;1.17;;;23.10;33.10;;;;;;5040262;28;20029;-51
2023/04/11 11:23:09;;;;;;;2.42;1.05;;;23.10;32.90;;;;;;5050730;28;20021;-51
2023/04/11 11:25:36;;;;;;;2.70;0.80;;;23.20;32.70;;;;;;5040155;28;20032;-53
2023/04/11 11:28:06;;;;;;;2.35;0.90;;;23.30;32.60;;;;;;5044226;28;20100;-52
2023/04/11 11:30:36;;;;;;;3.25;0.88;;;23.30;32.40;;;;;;5048303;28;20075;-55
2023/04/11 11:33:21;;;;;;;6.15;1.02;;;23.40;32.20;;;;;;5047871;28;20127;-54
2023/04/11 11:35:57;;;;;;;2.35;0.90;;;23.50;32.10;;;;;;5039721;28;20033;-53
2023/04/11 11:38:29;;;;;;;3.55;0.90;;;23.50;31.90;;;;;;5044166;28;20380;-53
2023/04/11 11:40:57;;;;;;;1.83;0.82;;;23.60;31.80;;;;;;5061231;28;20025;-55
2023/04/11 11:43:26;;;;;;;5.35;1.00;;;23.60;31.70;;;;;;5042559;28;20037;-52
2023/04/11 11:46:10;;;;;;;2.58;0.80;;;23.70;31.70;;;;;;5040314;28;20052;-54
2023/04/11 11:48:36;;;;;;;4.20;1.23;;;23.70;31.70;;;;;;5042484;28;20112;-53
2023/04/11 11:51:03;;;;;;;4.82;0.90;;;23.80;31.80;;;;;;5042936;28;20372;-56
2023/04/11 11:53:29;;;;;;;4.05;1.23;;;23.90;31.80;;;;;;5045230;28;20041;-51
2023/04/11 11:55:55;;;;;;;4.40;1.02;;;23.90;31.90;;;;;;5046321;28;20036;-50
2023/04/11 11:58:21;;;;;;;2.38;0.82;;;24.00;31.90;;;;;;5046981;28;20459;-50
2023/04/11 12:00:49;;;;;;;2.80;0.80;;;24.00;31.80;;;;;;5045538;28;20411;-52
2023/04/11 12:03:22;;;;;;;3.38;0.80;;;24.00;31.50;;;;;;5042345;28;20428;-53
2023/04/11 12:05:51;;;;;;;3.50;0.93;;;24.00;31.40;;;;;;5042582;28;20029;-51
2023/04/11 12:08:20;;;;;;;1.73;0.70;;;24.00;31.30;;;;;;5045545;28;20447;-57
2023/04/11 12:10:48;;;;;;;2.05;0.63;;;24.10;31.10;;;;;;5053500;28;20115;-55
2023/04/11 12:13:14;;;;;;;3.95;0.77;;;24.10;31.00;;;;;;5040905;28;20037;-48
2023/04/11 12:15:44;;;;;;;2.88;0.75;;;24.10;30.90;;;;;;5043278;28;20086;-51
2023/04/11 12:18:10;;;;;;;1.90;0.70;;;24.10;30.60;;;;;;5043510;28;20147;-50
2023/04/11 12:20:36;;;;;;;3.38;1.05;;;24.20;31.00;;;;;;5038560;28;20104;-49
2023/04/11 12:23:02;;;;;;;2.28;0.57;;;24.20;30.30;;;;;;5046420;28;20449;-54
2023/04/11 12:25:28;;;;;;;4.55;0.65;;;24.20;30.30;;;;;;5048869;28;20025;-51
2023/04/11 12:27:54;;;;;;;1.58;0.52;;;24.20;30.20;;;;;;5042466;28;20142;-55
2023/04/11 12:30:20;;;;;;;2.78;0.70;;;24.20;30.20;;;;;;5039441;28;20105;-49
2023/04/11 12:32:45;;;;;;;2.38;0.60;;;24.20;30.20;;;;;;5047068;28;20083;-53
2023/04/11 12:35:12;;;;;;;3.42;0.93;;;24.20;30.20;;;;;;5044005;28;20033;-54
2023/04/11 12:37:38;;;;;;;1.48;0.52;;;24.20;30.20;;;;;;5040857;28;20461;-54
2023/04/11 12:40:10;;;;;;;2.20;0.77;;;24.20;30.20;;;;;;5046053;28;20030;-54
2023/04/11 12:42:41;;;;;;;2.10;0.68;;;24.20;30.20;;;;;;5041973;28;20098;-53
2023/04/11 12:45:09;;;;;;;1.38;0.50;;;24.20;30.10;;;;;;5044840;28;20056;-49
2023/04/11 12:47:35;;;;;;;3.28;0.93;;;24.20;30.60;;;;;;5040015;28;20021;-53
2023/04/11 12:50:02;;;;;;;2.67;1.00;;;24.30;30.00;;;;;;5040141;28;20051;-53
2023/04/11 12:52:29;;;;;;;3.70;0.82;;;24.30;30.00;;;;;;5059480;28;20040;-54
2023/04/11 12:54:55;;;;;;;2.08;0.68;;;24.30;29.90;;;;;;5041823;28;20476;-55